Time;durP1;ratioP1;P1;durP2;ratioP2;P2;SDS_P1;SDS_P2;PMS_P1;PMS_P2;Temp;Humidity;BMP_temperature;BMP_pressure;BME280_temperature;BME280_humidity;BME280_pressure;Samples;Min_cycle;Max_cycle;Signal;HPM_P1;HPM_P2
2023/11/29 00:00:20;;;;;;;14.13;9.48;;;-0.60;99.90;;;;;;2007558;29;20121;-73
2023/11/29 00:01:20;;;;;;;15.27;9.30;;;-0.70;99.90;;;;;;2007388;29;20548;-73
2023/11/29 00:02:21;;;;;;;12.05;9.05;;;-0.70;99.90;;;;;;2009012;29;20049;-73
2023/11/29 00:03:21;;;;;;;14.95;9.00;;;-0.70;99.90;;;;;;2008323;29;20037;-73
2023/11/29 00:04:22;;;;;;;13.57;9.30;;;-0.70;99.90;;;;;;2008811;29;20033;-73
2023/11/29 00:05:23;;;;;;;13.27;9.18;;;-0.70;99.90;;;;;;2007092;29;20650;-73
2023/11/29 00:06:23;;;;;;;12.55;8.98;;;-0.70;99.90;;;;;;2009612;29;20125;-73
2023/11/29 00:07:24;;;;;;;15.65;9.35;;;-0.70;99.90;;;;;;2008774;29;20555;-74
2023/11/29 00:08:24;;;;;;;12.30;8.90;;;-0.80;99.90;;;;;;2006290;29;20159;-73
2023/11/29 00:09:25;;;;;;;12.30;8.73;;;-0.80;99.90;;;;;;2001459;29;20094;-73
2023/11/29 00:10:25;;;;;;;13.05;9.05;;;-0.70;99.90;;;;;;1997681;29;20572;-73
2023/11/29 00:11:26;;;;;;;12.10;8.93;;;-0.70;99.90;;;;;;2000960;29;20121;-74
2023/11/29 00:12:27;;;;;;;12.02;8.73;;;-0.80;99.90;;;;;;2006441;29;20053;-72
2023/11/29 00:13:28;;;;;;;13.52;9.35;;;-0.80;99.90;;;;;;2007796;29;20026;-72
2023/11/29 00:14:30;;;;;;;15.07;9.13;;;-0.80;99.90;;;;;;2009146;29;20037;-72
2023/11/29 00:15:31;;;;;;;12.73;9.13;;;-0.70;99.90;;;;;;2006737;29;20492;-72
2023/11/29 00:16:31;;;;;;;14.45;9.00;;;-0.70;99.90;;;;;;2010098;29;20036;-72
2023/11/29 00:17:32;;;;;;;12.25;8.65;;;-0.70;99.90;;;;;;2006008;29;20172;-72
2023/11/29 00:18:33;;;;;;;12.85;8.77;;;-0.70;99.90;;;;;;2006458;29;20036;-72
2023/11/29 00:19:33;;;;;;;13.05;8.80;;;-0.70;99.90;;;;;;2010408;29;20048;-72
2023/11/29 00:20:34;;;;;;;12.32;8.85;;;-0.70;99.90;;;;;;2013742;29;20092;-74
2023/11/29 00:21:40;;;;;;;15.07;9.40;;;-0.70;99.90;;;;;;2008075;29;20024;-74
2023/11/29 00:22:41;;;;;;;12.35;8.90;;;-0.70;99.90;;;;;;2009173;29;20064;-71
2023/11/29 00:23:41;;;;;;;12.85;9.35;;;-0.70;99.90;;;;;;2002214;29;20113;-72
2023/11/29 00:24:48;;;;;;;13.30;9.00;;;-0.70;99.90;;;;;;2002678;29;20472;-72
2023/11/29 00:25:49;;;;;;;12.88;8.80;;;-0.70;99.90;;;;;;2009644;29;20025;-74
2023/11/29 00:26:49;;;;;;;13.23;9.20;;;-0.70;99.90;;;;;;2008642;29;20038;-73
2023/11/29 00:27:50;;;;;;;14.70;9.00;;;-0.70;99.90;;;;;;2002018;29;20030;-72
2023/11/29 00:28:51;;;;;;;13.70;9.13;;;-0.70;99.90;;;;;;1999664;29;20062;-72
2023/11/29 00:29:51;;;;;;;12.23;9.25;;;-0.70;99.90;;;;;;1999701;29;20049;-72
2023/11/29 00:30:52;;;;;;;12.45;8.82;;;-0.80;99.90;;;;;;2006214;29;20049;-72
2023/11/29 00:31:52;;;;;;;13.65;9.45;;;-0.80;99.90;;;;;;1994327;29;20115;-72
2023/11/29 00:32:53;;;;;;;13.32;9.13;;;-0.80;99.90;;;;;;2001433;29;20053;-72
2023/11/29 00:33:54;;;;;;;13.63;9.30;;;-0.80;99.90;;;;;;2000242;29;20562;-75
2023/11/29 00:34:54;;;;;;;11.70;8.85;;;-0.80;99.90;;;;;;1985882;29;20153;-74
2023/11/29 00:35:56;;;;;;;15.48;9.48;;;-0.80;99.90;;;;;;1994095;29;20093;-72
2023/11/29 00:36:58;;;;;;;11.48;8.73;;;-0.80;99.90;;;;;;1996952;29;20428;-72
2023/11/29 00:37:58;;;;;;;12.88;9.25;;;-0.80;99.90;;;;;;1998576;29;20063;-73
2023/11/29 00:38:59;;;;;;;14.57;9.73;;;-0.80;99.90;;;;;;2001717;29;20103;-73
2023/11/29 00:39:59;;;;;;;12.88;9.35;;;-0.80;99.90;;;;;;2009173;29;20049;-72
2023/11/29 00:41:00;;;;;;;12.82;9.00;;;-0.80;99.90;;;;;;2006817;29;20448;-73
2023/11/29 00:42:01;;;;;;;11.80;8.50;;;-0.80;99.90;;;;;;2000692;29;20078;-73
2023/11/29 00:43:02;;;;;;;13.95;9.63;;;-0.80;99.90;;;;;;2001389;29;20556;-73
2023/11/29 00:44:02;;;;;;;13.52;9.52;;;-0.80;99.90;;;;;;2006566;29;20038;-73
2023/11/29 00:45:03;;;;;;;13.27;9.25;;;-0.90;99.90;;;;;;2001536;29;20038;-74
2023/11/29 00:46:05;;;;;;;14.18;9.13;;;-0.90;99.90;;;;;;2001318;29;20118;-72
2023/11/29 00:47:05;;;;;;;11.98;8.55;;;-0.90;99.90;;;;;;1994124;29;20030;-73
2023/11/29 00:48:06;;;;;;;11.52;8.70;;;-0.90;99.90;;;;;;1990375;29;20525;-74
2023/11/29 00:49:07;;;;;;;12.40;8.57;;;-0.80;99.90;;;;;;1997582;29;20121;-72
2023/11/29 00:50:08;;;;;;;11.07;8.88;;;-0.80;99.90;;;;;;2000112;29;20290;-72
2023/11/29 00:51:08;;;;;;;11.85;8.35;;;-0.80;99.90;;;;;;2001002;29;20050;-72
2023/11/29 00:52:09;;;;;;;12.18;8.48;;;-0.80;99.90;;;;;;1998335;29;20048;-73
2023/11/29 00:53:09;;;;;;;12.38;9.15;;;-0.80;99.90;;;;;;1998486;29;20073;-72
2023/11/29 00:54:11;;;;;;;12.48;8.90;;;-0.80;99.90;;;;;;2008214;29;20057;-72
2023/11/29 00:55:11;;;;;;;12.13;8.70;;;-0.80;99.90;;;;;;1999660;29;20036;-72
2023/11/29 00:56:12;;;;;;;11.15;8.40;;;-0.80;99.90;;;;;;1996422;29;20484;-72
2023/11/29 00:57:13;;;;;;;11.38;8.80;;;-0.80;99.90;;;;;;2004270;29;20040;-72
2023/11/29 00:58:13;;;;;;;11.60;8.68;;;-0.80;99.90;;;;;;1996021;29;20068;-72
2023/11/29 00:59:14;;;;;;;12.13;8.70;;;-0.80;99.90;;;;;;1999127;29;20137;-72
2023/11/29 01:00:15;;;;;;;12.38;9.15;;;-0.80;99.90;;;;;;2002393;29;20045;-72
2023/11/29 01:01:16;;;;;;;11.82;8.57;;;-0.80;99.90;;;;;;2007719;29;20037;-73
2023/11/29 01:02:17;;;;;;;10.35;7.78;;;-0.80;99.90;;;;;;2008299;29;20045;-72
2023/11/29 01:03:17;;;;;;;8.45;7.03;;;-0.80;99.90;;;;;;1998005;29;20565;-82
2023/11/29 01:04:18;;;;;;;9.75;7.50;;;-0.80;99.90;;;;;;2000770;29;20034;-86
2023/11/29 01:05:18;;;;;;;9.43;7.30;;;-0.80;99.90;;;;;;2001439;29;20041;-73
2023/11/29 01:06:20;;;;;;;9.23;7.05;;;-0.80;99.90;;;;;;1995531;29;20030;-71
2023/11/29 01:07:21;;;;;;;9.55;7.55;;;-0.80;99.90;;;;;;2005917;29;20055;-70
2023/11/29 01:08:25;;;;;;;10.20;7.90;;;-0.80;99.90;;;;;;2007732;29;20113;-69
2023/11/29 01:09:25;;;;;;;10.20;7.85;;;-0.80;99.90;;;;;;1999911;29;20040;-69
2023/11/29 01:10:26;;;;;;;9.27;7.65;;;-0.80;99.90;;;;;;1996209;29;20049;-70
2023/11/29 01:11:27;;;;;;;9.40;7.28;;;-0.80;99.90;;;;;;1996307;29;20033;-70
2023/11/29 01:12:27;;;;;;;10.18;7.65;;;-0.80;99.90;;;;;;1995708;29;20037;-69
2023/11/29 01:13:28;;;;;;;10.05;7.78;;;-0.80;99.90;;;;;;1998366;29;20532;-70
2023/11/29 01:14:29;;;;;;;8.85;7.22;;;-0.80;99.90;;;;;;1996485;29;20319;-70
2023/11/29 01:15:30;;;;;;;10.82;8.20;;;-0.90;99.90;;;;;;2004161;29;20037;-70
2023/11/29 01:16:31;;;;;;;9.20;7.47;;;-0.80;99.90;;;;;;2001281;29;20355;-70
2023/11/29 01:17:33;;;;;;;10.55;8.27;;;-0.90;99.90;;;;;;2007281;29;20057;-70
2023/11/29 01:18:33;;;;;;;10.07;7.55;;;-0.90;99.90;;;;;;1999741;29;20525;-70
2023/11/29 01:19:34;;;;;;;11.82;8.15;;;-0.90;99.90;;;;;;1996914;29;20037;-69
2023/11/29 01:20:35;;;;;;;11.65;8.68;;;-0.90;99.90;;;;;;1999937;29;20183;-69
2023/11/29 01:21:38;;;;;;;11.13;8.40;;;-0.90;99.90;;;;;;1999698;29;20085;-69
2023/11/29 01:22:39;;;;;;;10.65;8.15;;;-0.90;99.90;;;;;;2000228;29;20492;-69
2023/11/29 01:23:40;;;;;;;10.30;7.97;;;-0.90;99.90;;;;;;1996231;29;20026;-69
2023/11/29 01:24:40;;;;;;;11.55;8.35;;;-0.90;99.90;;;;;;1985062;29;20031;-69
2023/11/29 01:25:41;;;;;;;10.48;8.50;;;-0.90;99.90;;;;;;1996491;29;20584;-70
2023/11/29 01:26:42;;;;;;;10.30;8.02;;;-0.90;99.90;;;;;;2006318;29;20518;-70
2023/11/29 01:27:42;;;;;;;10.73;8.00;;;-0.90;99.90;;;;;;2004786;29;20040;-70
2023/11/29 01:28:43;;;;;;;11.35;8.48;;;-0.90;99.90;;;;;;2004754;29;20026;-70
2023/11/29 01:29:44;;;;;;;11.48;8.43;;;-1.00;99.90;;;;;;2007031;29;20045;-70
2023/11/29 01:30:44;;;;;;;13.52;9.02;;;-1.00;99.90;;;;;;1996669;29;20430;-70
2023/11/29 01:31:45;;;;;;;13.32;9.10;;;-1.00;99.90;;;;;;1981517;29;20533;-70
2023/11/29 01:32:45;;;;;;;11.25;8.60;;;-1.00;99.90;;;;;;1999358;29;20139;-70
2023/11/29 01:33:46;;;;;;;13.43;9.25;;;-1.10;99.90;;;;;;1995577;29;20092;-70
2023/11/29 01:34:46;;;;;;;12.38;9.80;;;-1.10;99.90;;;;;;1997621;29;20034;-70
2023/11/29 01:35:47;;;;;;;11.63;8.98;;;-1.10;99.90;;;;;;1999121;29;20042;-70
2023/11/29 01:36:47;;;;;;;12.40;8.98;;;-1.20;99.90;;;;;;1999908;29;20535;-70
2023/11/29 01:37:50;;;;;;;13.63;9.40;;;-1.20;99.90;;;;;;1997789;29;20030;-70
2023/11/29 01:38:51;;;;;;;12.20;9.27;;;-1.20;99.90;;;;;;1996855;29;20599;-70
2023/11/29 01:39:51;;;;;;;13.57;9.80;;;-1.30;99.90;;;;;;1998231;29;20451;-70
2023/11/29 01:40:53;;;;;;;12.10;9.35;;;-1.30;99.90;;;;;;1997983;29;20057;-71
2023/11/29 01:41:53;;;;;;;12.77;9.32;;;-1.30;99.90;;;;;;2000374;29;20097;-71
2023/11/29 01:42:54;;;;;;;11.93;9.35;;;-1.30;99.90;;;;;;2004656;29;20413;-70
2023/11/29 01:43:55;;;;;;;12.48;9.25;;;-1.40;99.90;;;;;;1998141;29;20430;-71
2023/11/29 01:44:55;;;;;;;13.30;9.93;;;-1.40;99.90;;;;;;1990070;29;20022;-70
2023/11/29 01:45:56;;;;;;;13.50;10.23;;;-1.40;99.90;;;;;;1992199;29;20087;-70
2023/11/29 01:46:57;;;;;;;13.52;9.98;;;-1.40;99.90;;;;;;1998815;29;20042;-70
2023/11/29 01:47:57;;;;;;;14.35;9.75;;;-1.40;99.90;;;;;;1995435;29;20353;-70
2023/11/29 01:48:59;;;;;;;14.30;10.40;;;-1.50;99.90;;;;;;1993975;29;20022;-70
2023/11/29 01:50:07;;;;;;;14.82;10.80;;;-1.40;99.90;;;;;;1996979;29;20561;-70
2023/11/29 01:51:08;;;;;;;15.07;10.90;;;-1.50;99.90;;;;;;2001378;29;20042;-70
2023/11/29 01:52:10;;;;;;;14.38;9.65;;;-1.50;99.90;;;;;;2007706;29;20032;-69
2023/11/29 01:53:12;;;;;;;13.60;9.95;;;-1.50;99.90;;;;;;2007376;29;20068;-69
2023/11/29 01:54:13;;;;;;;13.70;9.60;;;-1.50;99.90;;;;;;1996205;29;20038;-69
2023/11/29 01:55:17;;;;;;;13.63;9.95;;;-1.50;99.90;;;;;;1999345;29;20037;-69
2023/11/29 01:56:21;;;;;;;13.02;9.60;;;-1.50;99.90;;;;;;2000093;29;20057;-69
2023/11/29 01:57:22;;;;;;;12.70;9.45;;;-1.50;99.90;;;;;;1990361;29;20026;-71
2023/11/29 01:58:25;;;;;;;14.57;9.75;;;-1.50;99.90;;;;;;1984982;29;20042;-71
2023/11/29 01:59:25;;;;;;;14.23;10.10;;;-1.50;99.90;;;;;;1998364;29;20124;-69
2023/11/29 02:00:26;;;;;;;14.32;10.70;;;-1.50;99.90;;;;;;2005812;29;20049;-69
2023/11/29 02:01:27;;;;;;;14.82;10.27;;;-1.50;99.90;;;;;;1997735;29;20037;-70
2023/11/29 02:02:27;;;;;;;14.82;9.70;;;-1.60;99.90;;;;;;1999427;29;20401;-70
2023/11/29 02:03:28;;;;;;;14.95;10.57;;;-1.60;99.90;;;;;;1997065;29;20497;-70
2023/11/29 02:04:29;;;;;;;16.50;11.05;;;-1.60;99.90;;;;;;1989803;29;20573;-69
2023/11/29 02:05:30;;;;;;;15.27;10.48;;;-1.50;99.90;;;;;;1992037;29;20121;-70
2023/11/29 02:06:31;;;;;;;14.43;10.60;;;-1.60;99.90;;;;;;2006205;29;20397;-70
2023/11/29 02:07:32;;;;;;;15.82;10.63;;;-1.60;99.90;;;;;;1990013;29;20045;-69
2023/11/29 02:08:34;;;;;;;14.77;10.50;;;-1.60;99.90;;;;;;1996096;29;20129;-69
2023/11/29 02:09:35;;;;;;;14.32;10.57;;;-1.70;99.90;;;;;;1999334;29;20033;-70
2023/11/29 02:10:36;;;;;;;14.50;10.20;;;-1.70;99.90;;;;;;1996357;29;20141;-69
2023/11/29 02:11:41;;;;;;;14.95;11.05;;;-1.70;99.90;;;;;;2003659;29;20077;-71
2023/11/29 02:12:42;;;;;;;14.65;10.63;;;-1.60;99.90;;;;;;1996224;29;20072;-71
2023/11/29 02:13:43;;;;;;;15.82;11.20;;;-1.60;99.90;;;;;;1996361;29;20083;-70
2023/11/29 02:14:43;;;;;;;15.63;11.02;;;-1.60;99.90;;;;;;1997126;29;20085;-71
2023/11/29 02:15:44;;;;;;;16.55;11.57;;;-1.50;99.90;;;;;;1991506;29;20099;-70
2023/11/29 02:16:45;;;;;;;16.23;11.50;;;-1.60;99.90;;;;;;1991526;29;20516;-71
2023/11/29 02:17:45;;;;;;;15.57;11.18;;;-1.60;99.90;;;;;;1989125;29;20030;-71
2023/11/29 02:18:46;;;;;;;14.85;10.82;;;-1.60;99.90;;;;;;1999068;29;20058;-71
2023/11/29 02:19:46;;;;;;;15.20;10.85;;;-1.60;99.90;;;;;;2004436;29;20215;-71
2023/11/29 02:20:47;;;;;;;16.42;11.63;;;-1.50;99.90;;;;;;2003614;29;20029;-71
2023/11/29 02:21:48;;;;;;;16.25;11.30;;;-1.50;99.90;;;;;;2004291;29;20044;-70
2023/11/29 02:22:57;;;;;;;17.10;11.88;;;-1.40;99.90;;;;;;1999317;29;20116;-71
2023/11/29 02:24:18;;;;;;;16.38;11.45;;;-1.40;99.90;;;;;;1998249;29;20082;-71
2023/11/29 02:25:18;;;;;;;16.42;11.63;;;-1.40;99.90;;;;;;1995878;29;20022;-70
2023/11/29 02:26:19;;;;;;;16.73;11.15;;;-1.40;99.90;;;;;;1994752;29;20194;-71
2023/11/29 02:27:20;;;;;;;15.90;11.35;;;-1.30;99.90;;;;;;1991976;29;20207;-71
2023/11/29 02:28:21;;;;;;;16.25;11.48;;;-1.40;99.90;;;;;;1987280;29;20470;-70
2023/11/29 02:29:21;;;;;;;17.42;11.93;;;-1.30;99.90;;;;;;1997919;29;20042;-71
2023/11/29 02:30:22;;;;;;;17.90;11.82;;;-1.40;99.90;;;;;;1991714;29;20041;-71
2023/11/29 02:31:23;;;;;;;16.10;11.98;;;-1.30;99.90;;;;;;1997428;29;20068;-70
2023/11/29 02:32:23;;;;;;;16.17;11.52;;;-1.30;99.90;;;;;;1999338;29;20045;-71
2023/11/29 02:33:24;;;;;;;15.77;11.35;;;-1.30;99.90;;;;;;1995863;29;20037;-71
2023/11/29 02:34:25;;;;;;;17.88;12.32;;;-1.30;99.90;;;;;;1996858;29;20022;-70
2023/11/29 02:35:25;;;;;;;18.02;12.95;;;-1.20;99.90;;;;;;1996915;29;20022;-70
2023/11/29 02:36:26;;;;;;;17.30;12.25;;;-1.20;99.90;;;;;;2006076;29;20527;-71
2023/11/29 02:37:26;;;;;;;17.85;11.65;;;-1.10;99.90;;;;;;1995843;29;20030;-71
2023/11/29 02:38:27;;;;;;;18.25;12.30;;;-1.10;99.90;;;;;;1998012;29;20136;-71
2023/11/29 02:39:28;;;;;;;17.90;12.50;;;-1.10;99.90;;;;;;1997395;29;20034;-71
2023/11/29 02:40:29;;;;;;;18.23;12.18;;;-1.10;99.90;;;;;;1999791;29;20062;-70
2023/11/29 02:41:29;;;;;;;17.23;12.07;;;-1.10;99.90;;;;;;1992141;29;20971;-71
2023/11/29 02:42:30;;;;;;;18.13;12.63;;;-1.00;99.90;;;;;;1997161;29;20034;-71
2023/11/29 02:43:30;;;;;;;16.40;11.73;;;-1.00;99.90;;;;;;1999488;29;20513;-71
2023/11/29 02:44:31;;;;;;;17.27;11.82;;;-1.10;99.90;;;;;;1995727;29;20489;-71
2023/11/29 02:45:32;;;;;;;17.10;11.57;;;-1.10;99.90;;;;;;1993459;29;20286;-70
2023/11/29 02:46:33;;;;;;;17.52;12.20;;;-1.10;99.90;;;;;;1996242;29;20120;-70
2023/11/29 02:47:33;;;;;;;18.45;12.57;;;-1.10;99.90;;;;;;1996305;29;20025;-71
2023/11/29 02:48:34;;;;;;;18.92;13.07;;;-1.10;99.90;;;;;;1999560;29;20029;-69
2023/11/29 02:49:34;;;;;;;24.40;15.63;;;-1.10;99.90;;;;;;1996185;29;20033;-69
2023/11/29 02:50:35;;;;;;;21.55;14.00;;;-1.10;99.90;;;;;;1996010;29;20046;-69
2023/11/29 02:51:36;;;;;;;18.50;12.25;;;-1.00;99.90;;;;;;1995250;29;20528;-70
2023/11/29 02:52:36;;;;;;;18.92;12.65;;;-1.00;99.90;;;;;;2003474;29;20470;-69
2023/11/29 02:53:37;;;;;;;18.75;12.65;;;-1.00;99.90;;;;;;2004021;29;20061;-70
2023/11/29 02:54:38;;;;;;;18.33;12.63;;;-1.00;99.90;;;;;;1999671;29;20125;-70
2023/11/29 02:55:38;;;;;;;19.95;12.65;;;-1.10;99.90;;;;;;1995344;29;20121;-71
2023/11/29 02:56:39;;;;;;;19.75;13.45;;;-1.10;99.90;;;;;;1991902;29;20034;-70
2023/11/29 02:57:39;;;;;;;19.38;13.25;;;-1.10;99.90;;;;;;2003220;29;20040;-71
2023/11/29 02:58:40;;;;;;;20.48;13.90;;;-1.10;99.90;;;;;;2003552;29;20029;-70
2023/11/29 02:59:41;;;;;;;22.45;13.65;;;-1.10;99.90;;;;;;2003406;29;20025;-71
2023/11/29 03:00:42;;;;;;;19.40;13.30;;;-1.10;99.90;;;;;;1995568;29;20563;-70
2023/11/29 03:01:43;;;;;;;22.98;13.98;;;-1.20;99.90;;;;;;1999297;29;20200;-71
2023/11/29 03:02:44;;;;;;;21.63;13.95;;;-1.30;99.90;;;;;;2006731;29;20029;-71
2023/11/29 03:03:45;;;;;;;19.67;13.57;;;-1.30;99.90;;;;;;1996153;29;20509;-71
2023/11/29 03:04:45;;;;;;;21.75;14.60;;;-1.40;99.90;;;;;;2004629;29;20030;-68
2023/11/29 03:05:48;;;;;;;21.63;14.45;;;-1.40;99.90;;;;;;1991254;29;20756;-71
2023/11/29 03:06:48;;;;;;;20.40;14.52;;;-1.40;99.90;;;;;;1988276;29;20034;-69
2023/11/29 03:07:49;;;;;;;21.15;14.23;;;-1.40;99.90;;;;;;1992879;29;20082;-70
2023/11/29 03:08:49;;;;;;;22.83;14.25;;;-1.40;99.90;;;;;;1999492;29;20610;-70
2023/11/29 03:09:50;;;;;;;20.50;13.82;;;-1.40;99.90;;;;;;1996811;29;20112;-70
2023/11/29 03:10:53;;;;;;;20.40;14.07;;;-1.40;99.90;;;;;;1998126;29;20366;-70
2023/11/29 03:11:53;;;;;;;21.85;14.88;;;-1.40;99.90;;;;;;2001748;29;20029;-70
2023/11/29 03:12:54;;;;;;;20.98;13.75;;;-1.40;99.90;;;;;;1993407;29;20032;-70
2023/11/29 03:13:55;;;;;;;22.25;15.23;;;-1.50;99.90;;;;;;1988113;29;20064;-70
2023/11/29 03:14:55;;;;;;;21.42;14.55;;;-1.60;99.90;;;;;;1997176;29;20045;-70
2023/11/29 03:15:56;;;;;;;22.35;15.18;;;-1.70;99.90;;;;;;1997120;29;20026;-69
2023/11/29 03:16:56;;;;;;;22.67;15.15;;;-1.70;99.90;;;;;;1993820;29;20025;-70
2023/11/29 03:17:57;;;;;;;22.33;14.15;;;-1.80;99.90;;;;;;1998833;29;20056;-71
2023/11/29 03:18:57;;;;;;;24.45;15.43;;;-1.90;99.90;;;;;;1997226;29;20034;-71
2023/11/29 03:19:59;;;;;;;23.42;14.98;;;-1.90;99.90;;;;;;1989863;29;20125;-69
2023/11/29 03:20:59;;;;;;;22.67;15.10;;;-1.90;99.90;;;;;;1995570;29;20026;-69
2023/11/29 03:22:02;;;;;;;22.05;14.73;;;-1.90;99.90;;;;;;1999460;29;20412;-70
2023/11/29 03:23:02;;;;;;;23.05;15.20;;;-2.00;99.90;;;;;;1999052;29;20173;-70
2023/11/29 03:24:03;;;;;;;22.83;15.15;;;-2.00;99.90;;;;;;1999794;29;20484;-70
2023/11/29 03:25:04;;;;;;;24.02;15.27;;;-2.10;99.90;;;;;;1996029;29;20038;-70
2023/11/29 03:26:05;;;;;;;24.67;15.60;;;-2.00;99.90;;;;;;1995801;29;20038;-70
2023/11/29 03:27:05;;;;;;;23.45;15.13;;;-2.00;99.90;;;;;;1995766;29;20052;-70
2023/11/29 03:28:06;;;;;;;22.42;15.10;;;-2.00;99.90;;;;;;1997649;29;20034;-70
2023/11/29 03:29:06;;;;;;;24.23;16.00;;;-2.10;99.90;;;;;;1997243;29;20555;-70
2023/11/29 03:30:07;;;;;;;23.55;15.57;;;-2.10;99.90;;;;;;1999242;29;20038;-70
2023/11/29 03:31:08;;;;;;;23.63;15.00;;;-2.10;99.90;;;;;;1995945;29;20452;-70
2023/11/29 03:32:08;;;;;;;24.88;15.85;;;-2.20;99.90;;;;;;1993875;29;20025;-70
2023/11/29 03:33:09;;;;;;;24.90;15.55;;;-2.20;99.90;;;;;;1996693;29;20029;-70
2023/11/29 03:34:10;;;;;;;24.45;15.95;;;-2.20;99.90;;;;;;1999340;29;20249;-70
2023/11/29 03:35:11;;;;;;;25.65;15.88;;;-2.20;99.90;;;;;;1998458;29;20033;-70
2023/11/29 03:36:11;;;;;;;26.92;16.23;;;-2.20;99.90;;;;;;1999951;29;20381;-71
2023/11/29 03:37:12;;;;;;;26.00;15.88;;;-2.20;99.90;;;;;;2003202;29;20037;-70
2023/11/29 03:38:13;;;;;;;26.80;16.33;;;-2.20;99.90;;;;;;1995571;29;20094;-70
2023/11/29 03:39:14;;;;;;;24.52;15.45;;;-2.20;99.90;;;;;;1998892;29;20413;-70
2023/11/29 03:40:14;;;;;;;24.02;15.50;;;-2.20;99.90;;;;;;2004283;29;20116;-70
2023/11/29 03:41:15;;;;;;;25.58;15.85;;;-2.30;99.90;;;;;;1999262;29;20304;-70
2023/11/29 03:42:16;;;;;;;25.63;16.25;;;-2.30;99.90;;;;;;1998556;29;20101;-71
2023/11/29 03:43:16;;;;;;;24.63;15.35;;;-2.30;99.90;;;;;;1988162;29;20090;-71
2023/11/29 03:44:17;;;;;;;25.23;15.88;;;-2.30;99.90;;;;;;1984329;29;20042;-71
2023/11/29 03:45:18;;;;;;;26.08;15.77;;;-2.30;99.90;;;;;;1999079;29;20512;-71
2023/11/29 03:46:18;;;;;;;24.13;15.65;;;-2.30;99.90;;;;;;1995122;29;20037;-72
2023/11/29 03:47:19;;;;;;;25.88;16.27;;;-2.30;99.90;;;;;;2002944;29;20022;-71
2023/11/29 03:48:20;;;;;;;23.63;15.45;;;-2.30;99.90;;;;;;2003157;29;20025;-70
2023/11/29 03:49:20;;;;;;;24.23;15.23;;;-2.30;99.90;;;;;;1995975;29;20038;-69
2023/11/29 03:50:21;;;;;;;24.50;14.85;;;-2.40;99.90;;;;;;2006707;29;20034;-70
2023/11/29 03:51:21;;;;;;;23.42;14.95;;;-2.40;99.90;;;;;;2006634;29;20029;-69
2023/11/29 03:52:24;;;;;;;23.38;14.73;;;-2.40;99.90;;;;;;1995734;29;20030;-69
2023/11/29 03:53:24;;;;;;;24.48;15.25;;;-2.40;99.90;;;;;;1998823;29;20095;-69
2023/11/29 03:54:25;;;;;;;22.92;14.45;;;-2.40;99.90;;;;;;1999971;29;20114;-69
2023/11/29 03:55:25;;;;;;;22.20;14.50;;;-2.40;99.90;;;;;;1999050;29;20029;-70
2023/11/29 03:56:26;;;;;;;23.30;14.57;;;-2.30;99.90;;;;;;1998497;29;20029;-70
2023/11/29 03:57:27;;;;;;;23.42;14.68;;;-2.30;99.90;;;;;;2007520;29;20121;-69
2023/11/29 03:58:28;;;;;;;22.17;13.88;;;-2.30;99.90;;;;;;1996652;29;20415;-71
2023/11/29 03:59:29;;;;;;;25.42;14.43;;;-2.30;99.90;;;;;;1998229;29;20125;-71
2023/11/29 04:00:29;;;;;;;22.75;14.23;;;-2.30;99.90;;;;;;1995382;29;20037;-71
2023/11/29 04:01:33;;;;;;;23.50;14.85;;;-2.40;99.90;;;;;;1991583;29;20184;-71
2023/11/29 04:02:33;;;;;;;22.67;14.23;;;-2.40;99.90;;;;;;1997499;29;20034;-71
2023/11/29 04:03:34;;;;;;;22.38;14.43;;;-2.40;99.90;;;;;;1995532;29;20129;-71
2023/11/29 04:04:34;;;;;;;21.35;13.35;;;-2.40;99.90;;;;;;2004731;29;20496;-71
2023/11/29 04:05:35;;;;;;;22.30;14.27;;;-2.40;99.90;;;;;;2005512;29;20029;-71
2023/11/29 04:06:36;;;;;;;23.13;14.50;;;-2.40;99.90;;;;;;1996910;29;20351;-70
2023/11/29 04:07:37;;;;;;;22.70;13.98;;;-2.40;99.90;;;;;;1993167;29;20038;-70
2023/11/29 04:08:38;;;;;;;22.55;14.25;;;-2.40;99.90;;;;;;2001619;29;20030;-71
2023/11/29 04:09:38;;;;;;;22.20;14.30;;;-2.40;99.90;;;;;;1996881;29;20206;-70
2023/11/29 04:10:40;;;;;;;20.92;13.52;;;-2.40;99.90;;;;;;1991397;29;20065;-73
2023/11/29 04:11:43;;;;;;;21.02;13.07;;;-2.40;99.90;;;;;;1996895;29;20553;-69
2023/11/29 04:12:44;;;;;;;22.23;14.15;;;-2.30;99.90;;;;;;1996110;29;20394;-69
2023/11/29 04:13:45;;;;;;;21.35;13.80;;;-2.30;99.90;;;;;;1991321;29;20099;-70
2023/11/29 04:14:46;;;;;;;22.42;13.75;;;-2.30;99.90;;;;;;1991549;29;20030;-69
2023/11/29 04:15:46;;;;;;;20.25;13.02;;;-2.30;99.90;;;;;;1980288;29;20521;-69
2023/11/29 04:16:47;;;;;;;22.35;13.70;;;-2.30;99.90;;;;;;1976775;29;20028;-70
2023/11/29 04:17:47;;;;;;;21.33;13.45;;;-2.30;99.90;;;;;;1976264;29;20457;-70
2023/11/29 04:18:50;;;;;;;21.17;13.45;;;-2.40;99.90;;;;;;1988021;29;20038;-71
2023/11/29 04:19:50;;;;;;;23.55;13.68;;;-2.40;99.90;;;;;;2002847;29;20056;-71
2023/11/29 04:20:51;;;;;;;21.63;13.77;;;-2.40;99.90;;;;;;1998754;29;20028;-70
2023/11/29 04:21:52;;;;;;;20.17;13.10;;;-2.50;99.90;;;;;;1995462;29;20424;-71
2023/11/29 04:22:53;;;;;;;19.90;13.10;;;-2.50;99.90;;;;;;1991074;29;20062;-71
2023/11/29 04:23:54;;;;;;;20.65;13.00;;;-2.50;99.90;;;;;;1995788;29;20053;-70
2023/11/29 04:24:55;;;;;;;19.52;12.65;;;-2.40;99.90;;;;;;1995842;29;20036;-70
2023/11/29 04:25:56;;;;;;;20.75;12.30;;;-2.50;99.90;;;;;;1998190;29;20511;-71
2023/11/29 04:26:56;;;;;;;19.27;11.90;;;-2.40;99.90;;;;;;1996891;29;20018;-71
2023/11/29 04:27:57;;;;;;;19.25;12.38;;;-2.40;99.90;;;;;;1988636;29;20114;-70
2023/11/29 04:29:00;;;;;;;17.65;11.75;;;-2.40;99.90;;;;;;1992932;29;20581;-70
2023/11/29 04:30:02;;;;;;;18.63;12.45;;;-2.40;99.90;;;;;;2004639;29;20456;-71
2023/11/29 04:31:04;;;;;;;18.65;12.50;;;-2.40;99.90;;;;;;1997619;29;20455;-70
2023/11/29 04:32:05;;;;;;;19.98;12.20;;;-2.40;99.90;;;;;;1986674;29;20045;-70
2023/11/29 04:33:05;;;;;;;17.60;11.50;;;-2.40;99.90;;;;;;1987197;29;20706;-71
2023/11/29 04:34:07;;;;;;;18.02;11.73;;;-2.40;99.90;;;;;;2000506;29;20036;-70
2023/11/29 04:35:08;;;;;;;16.80;11.35;;;-2.40;99.90;;;;;;2006786;29;20061;-70
2023/11/29 04:36:12;;;;;;;16.90;11.45;;;-2.40;99.90;;;;;;1998217;29;20377;-69
2023/11/29 04:37:12;;;;;;;19.25;11.93;;;-2.40;99.90;;;;;;1996778;29;20038;-69
2023/11/29 04:38:15;;;;;;;16.35;11.10;;;-2.40;99.90;;;;;;2001381;29;20057;-70
2023/11/29 04:39:16;;;;;;;18.88;11.55;;;-2.40;99.90;;;;;;2006931;29;20072;-70
2023/11/29 04:40:17;;;;;;;17.08;11.30;;;-2.30;99.90;;;;;;2004631;29;20630;-74
2023/11/29 04:41:18;;;;;;;17.00;10.77;;;-2.40;99.90;;;;;;2008813;29;20045;-74
2023/11/29 04:42:19;;;;;;;15.88;10.93;;;-2.30;99.90;;;;;;2008500;29;20029;-74
2023/11/29 04:43:20;;;;;;;15.57;10.18;;;-2.30;99.90;;;;;;1996897;29;20679;-73
2023/11/29 04:44:21;;;;;;;15.70;10.90;;;-2.30;99.90;;;;;;2000538;29;20116;-74
2023/11/29 04:45:22;;;;;;;17.27;11.50;;;-2.30;99.90;;;;;;2000396;29;20052;-72
2023/11/29 04:46:22;;;;;;;16.05;10.85;;;-2.30;99.90;;;;;;1996761;29;20037;-73
2023/11/29 04:47:23;;;;;;;15.93;10.45;;;-2.30;99.90;;;;;;2007838;29;20033;-74
2023/11/29 04:48:24;;;;;;;15.27;10.32;;;-2.30;99.90;;;;;;2007902;29;20136;-73
2023/11/29 04:49:25;;;;;;;15.82;10.55;;;-2.30;99.90;;;;;;2005293;29;20073;-73
2023/11/29 04:50:25;;;;;;;15.50;10.10;;;-2.30;99.90;;;;;;2008096;29;20041;-74
2023/11/29 04:51:26;;;;;;;14.13;9.80;;;-2.40;99.90;;;;;;2000863;29;20091;-73
2023/11/29 04:52:28;;;;;;;13.20;9.57;;;-2.30;99.90;;;;;;1998817;29;20065;-73
2023/11/29 04:53:28;;;;;;;19.48;12.25;;;-2.30;99.90;;;;;;1988997;29;20030;-73
2023/11/29 04:54:29;;;;;;;18.60;12.20;;;-2.30;99.90;;;;;;1990083;29;20500;-73
2023/11/29 04:55:29;;;;;;;37.17;20.88;;;-2.30;99.90;;;;;;2004590;29;20044;-74
2023/11/29 04:56:30;;;;;;;31.52;18.80;;;-2.30;99.90;;;;;;2001736;29;20052;-73
2023/11/29 04:57:30;;;;;;;39.35;22.73;;;-2.30;99.90;;;;;;2004862;29;20152;-73
2023/11/29 04:58:33;;;;;;;31.33;18.45;;;-2.40;99.90;;;;;;2005885;29;20029;-73
2023/11/29 04:59:37;;;;;;;22.42;14.05;;;-2.40;99.90;;;;;;2007384;29;20029;-73
2023/11/29 05:00:37;;;;;;;15.80;10.30;;;-2.40;99.90;;;;;;2004874;29;20033;-73
2023/11/29 05:01:38;;;;;;;22.67;13.98;;;-2.40;99.90;;;;;;2006627;29;20037;-74
2023/11/29 05:02:38;;;;;;;26.30;15.93;;;-2.40;99.90;;;;;;2006299;29;20117;-74
2023/11/29 05:03:39;;;;;;;18.55;11.93;;;-2.40;99.90;;;;;;2008542;29;20040;-74
2023/11/29 05:04:40;;;;;;;37.03;20.80;;;-2.40;99.90;;;;;;2009861;29;20033;-73
2023/11/29 05:05:41;;;;;;;27.88;16.40;;;-2.40;99.90;;;;;;1995659;29;20053;-73
2023/11/29 05:06:42;;;;;;;22.00;12.48;;;-2.40;99.90;;;;;;1989593;29;20045;-73
2023/11/29 05:07:43;;;;;;;27.30;15.18;;;-2.40;99.90;;;;;;1989181;29;20061;-73
2023/11/29 05:08:43;;;;;;;33.17;16.60;;;-2.40;99.90;;;;;;1997038;29;20521;-73
2023/11/29 05:09:44;;;;;;;35.88;19.05;;;-2.30;99.90;;;;;;2008421;29;20481;-74
2023/11/29 05:10:44;;;;;;;14.45;9.88;;;-2.40;99.90;;;;;;2010895;29;20555;-74